sensor_id;sensor_type;location;lat;lon;timestamp;pressure;altitude;pressure_sealevel;temperature;humidity
26915;BME280;14480;52.608;13.416;2023-06-14T16:28:45;145246.50;;;5.14;63.12
26915;BME280;14480;52.608;13.416;2023-06-14T16:33:49;145204.00;;;4.97;63.16
26915;BME280;14480;52.608;13.416;2023-06-14T16:39:00;145207.81;;;4.98;63.21
26915;BME280;14480;52.608;13.416;2023-06-14T16:44:05;145149.09;;;4.75;64.07
26915;BME280;14480;52.608;13.416;2023-06-14T16:49:08;145154.09;;;4.77;64.47
26915;BME280;14480;52.608;13.416;2023-06-14T16:54:12;145104.13;;;4.56;65.80
26915;BME280;14480;52.608;13.416;2023-06-14T16:59:17;145099.13;;;4.54;66.08
26915;BME280;14480;52.608;13.416;2023-06-14T17:04:21;145079.13;;;4.46;66.46
26915;BME280;14480;52.608;13.416;2023-06-14T17:09:27;145051.66;;;4.35;66.98
26915;BME280;14480;52.608;13.416;2023-06-14T17:14:34;145034.16;;;4.28;67.72
26915;BME280;14480;52.608;13.416;2023-06-14T17:19:37;145009.22;;;4.18;68.35
26915;BME280;14480;52.608;13.416;2023-06-14T17:24:42;145037.94;;;4.29;67.93
26915;BME280;14480;52.608;13.416;2023-06-14T17:29:47;144996.72;;;4.13;68.11
26915;BME280;14480;52.608;13.416;2023-06-14T17:34:51;144995.47;;;4.12;68.19
26915;BME280;14480;52.608;13.416;2023-06-14T17:39:54;144991.72;;;4.10;68.43
26915;BME280;14480;52.608;13.416;2023-06-14T17:44:59;144980.53;;;4.06;68.34
26915;BME280;14480;52.608;13.416;2023-06-14T17:50:03;144971.75;;;4.02;68.70
26915;BME280;14480;52.608;13.416;2023-06-14T17:55:08;144940.53;;;3.90;69.06
26915;BME280;14480;52.608;13.416;2023-06-14T18:00:13;144958.03;;;3.97;68.83
26915;BME280;14480;52.608;13.416;2023-06-14T18:05:17;144946.78;;;3.92;69.27
26915;BME280;14480;52.608;13.416;2023-06-14T18:10:21;144915.56;;;3.79;69.46
26915;BME280;14480;52.608;13.416;2023-06-14T18:15:26;144909.34;;;3.77;69.92
26915;BME280;14480;52.608;13.416;2023-06-14T18:20:29;144904.38;;;3.75;70.21
26915;BME280;14480;52.608;13.416;2023-06-14T18:25:34;144900.63;;;3.73;70.43
26915;BME280;14480;52.608;13.416;2023-06-14T18:30:38;144894.41;;;3.71;70.65
26915;BME280;14480;52.608;13.416;2023-06-14T18:35:42;144898.13;;;3.72;70.52
26915;BME280;14480;52.608;13.416;2023-06-14T18:40:48;144883.13;;;3.66;70.36
26915;BME280;14480;52.608;13.416;2023-06-14T18:45:55;144860.66;;;3.57;70.42
26915;BME280;14480;52.608;13.416;2023-06-14T18:50:59;144853.19;;;3.54;71.08
26915;BME280;14480;52.608;13.416;2023-06-14T18:56:04;144815.78;;;3.39;71.14
26915;BME280;14480;52.608;13.416;2023-06-14T19:01:09;144813.28;;;3.38;71.57
26915;BME280;14480;52.608;13.416;2023-06-14T19:06:13;144807.00;;;3.35;71.83
26915;BME280;14480;52.608;13.416;2023-06-14T19:11:19;144790.81;;;3.29;72.68
26915;BME280;14480;52.608;13.416;2023-06-14T19:16:24;144767.09;;;3.19;73.11
26915;BME280;14480;52.608;13.416;2023-06-14T19:21:28;144760.88;;;3.16;73.45
26915;BME280;14480;52.608;13.416;2023-06-14T19:26:31;144729.69;;;3.04;74.27
26915;BME280;14480;52.608;13.416;2023-06-14T19:31:37;144717.19;;;2.99;74.89
26915;BME280;14480;52.608;13.416;2023-06-14T19:36:41;144706.00;;;2.94;75.47
26915;BME280;14480;52.608;13.416;2023-06-14T19:41:44;144682.28;;;2.84;75.88
26915;BME280;14480;52.608;13.416;2023-06-14T19:46:49;144662.31;;;2.76;76.97
26915;BME280;14480;52.608;13.416;2023-06-14T19:51:52;144639.91;;;2.67;76.73
26915;BME280;14480;52.608;13.416;2023-06-14T19:56:56;144580.03;;;2.43;75.86
26915;BME280;14480;52.608;13.416;2023-06-14T20:02:04;144646.13;;;2.70;75.88
26915;BME280;14480;52.608;13.416;2023-06-14T20:07:07;144622.44;;;2.60;76.79
26915;BME280;14480;52.608;13.416;2023-06-14T20:12:11;144626.19;;;2.61;77.10
26915;BME280;14480;52.608;13.416;2023-06-14T20:17:16;144588.78;;;2.46;78.02
26915;BME280;14480;52.608;13.416;2023-06-14T20:22:19;144485.31;;;2.04;78.72
26915;BME280;14480;52.608;13.416;2023-06-14T20:27:23;144558.88;;;2.34;79.34
26915;BME280;14480;52.608;13.416;2023-06-14T20:32:28;144553.88;;;2.32;79.58
26915;BME280;14480;52.608;13.416;2023-06-14T20:37:31;144542.66;;;2.27;80.05
26915;BME280;14480;52.608;13.416;2023-06-14T20:42:35;144522.69;;;2.19;80.46
26915;BME280;14480;52.608;13.416;2023-06-14T20:47:40;144513.97;;;2.16;80.60
26915;BME280;14480;52.608;13.416;2023-06-14T20:52:45;144475.34;;;2.00;82.61
26915;BME280;14480;52.608;13.416;2023-06-14T20:57:49;144474.13;;;1.99;83.40
26915;BME280;14480;52.608;13.416;2023-06-14T21:02:54;144449.19;;;1.89;83.02
26915;BME280;14480;52.608;13.416;2023-06-14T21:08:05;144459.13;;;1.93;82.52
26915;BME280;14480;52.608;13.416;2023-06-14T21:13:10;144440.47;;;1.86;82.30
26915;BME280;14480;52.608;13.416;2023-06-14T21:18:17;144465.34;;;1.96;81.90
26915;BME280;14480;52.608;13.416;2023-06-14T21:23:20;144452.91;;;1.91;82.09
